sensor_id;sensor_type;location;lat;lon;timestamp;temperature;humidity
46309;DHT22;32037;50.820;6.494;2023-10-13T00:01:25;19.90;71.50
46309;DHT22;32037;50.820;6.494;2023-10-13T00:03:55;19.90;71.00
46309;DHT22;32037;50.820;6.494;2023-10-13T00:06:24;19.90;71.70
46309;DHT22;32037;50.820;6.494;2023-10-13T00:08:53;19.90;71.50
46309;DHT22;32037;50.820;6.494;2023-10-13T00:11:22;19.80;71.00
46309;DHT22;32037;50.820;6.494;2023-10-13T00:13:53;19.80;71.00
46309;DHT22;32037;50.820;6.494;2023-10-13T00:16:22;19.80;71.20
46309;DHT22;32037;50.820;6.494;2023-10-13T00:18:51;19.80;71.60
46309;DHT22;32037;50.820;6.494;2023-10-13T00:21:23;19.80;71.00
46309;DHT22;32037;50.820;6.494;2023-10-13T00:23:59;19.80;71.30
46309;DHT22;32037;50.820;6.494;2023-10-13T00:26:34;19.80;71.00
46309;DHT22;32037;50.820;6.494;2023-10-13T00:29:04;19.80;71.00
46309;DHT22;32037;50.820;6.494;2023-10-13T00:31:43;19.80;71.50
46309;DHT22;32037;50.820;6.494;2023-10-13T00:34:16;19.80;71.50
46309;DHT22;32037;50.820;6.494;2023-10-13T00:36:55;19.80;71.00
46309;DHT22;32037;50.820;6.494;2023-10-13T00:39:40;19.80;70.90
46309;DHT22;32037;50.820;6.494;2023-10-13T00:42:11;19.80;71.00
46309;DHT22;32037;50.820;6.494;2023-10-13T00:44:47;19.80;70.90
46309;DHT22;32037;50.820;6.494;2023-10-13T00:47:17;19.80;71.00
46309;DHT22;32037;50.820;6.494;2023-10-13T00:49:59;19.80;71.00
46309;DHT22;32037;50.820;6.494;2023-10-13T00:52:30;19.80;71.00
46309;DHT22;32037;50.820;6.494;2023-10-13T00:54:57;19.80;71.00
46309;DHT22;32037;50.820;6.494;2023-10-13T00:57:27;19.80;71.20
46309;DHT22;32037;50.820;6.494;2023-10-13T00:59:56;19.80;71.20
46309;DHT22;32037;50.820;6.494;2023-10-13T01:02:26;19.80;71.50
46309;DHT22;32037;50.820;6.494;2023-10-13T01:05:07;19.80;71.20
46309;DHT22;32037;50.820;6.494;2023-10-13T01:07:39;19.80;71.70
46309;DHT22;32037;50.820;6.494;2023-10-13T01:10:10;19.80;71.40
46309;DHT22;32037;50.820;6.494;2023-10-13T01:12:42;19.80;71.50
46309;DHT22;32037;50.820;6.494;2023-10-13T01:15:09;19.80;71.50
46309;DHT22;32037;50.820;6.494;2023-10-13T01:17:38;19.80;71.40
46309;DHT22;32037;50.820;6.494;2023-10-13T01:20:06;19.80;71.60
46309;DHT22;32037;50.820;6.494;2023-10-13T01:22:40;19.70;71.60
46309;DHT22;32037;50.820;6.494;2023-10-13T01:25:11;19.70;71.30
46309;DHT22;32037;50.820;6.494;2023-10-13T01:27:46;19.70;71.30
46309;DHT22;32037;50.820;6.494;2023-10-13T01:30:16;19.70;71.30
46309;DHT22;32037;50.820;6.494;2023-10-13T01:32:49;19.80;71.40
46309;DHT22;32037;50.820;6.494;2023-10-13T01:35:18;19.80;71.50
46309;DHT22;32037;50.820;6.494;2023-10-13T01:37:52;19.70;71.50
46309;DHT22;32037;50.820;6.494;2023-10-13T01:40:20;19.80;71.50
46309;DHT22;32037;50.820;6.494;2023-10-13T01:42:56;19.80;71.80
46309;DHT22;32037;50.820;6.494;2023-10-13T01:45:23;19.80;71.70
46309;DHT22;32037;50.820;6.494;2023-10-13T01:47:56;19.80;71.90
46309;DHT22;32037;50.820;6.494;2023-10-13T01:50:24;19.80;71.70
46309;DHT22;32037;50.820;6.494;2023-10-13T01:52:56;19.70;71.70
46309;DHT22;32037;50.820;6.494;2023-10-13T01:55:39;19.70;71.50
46309;DHT22;32037;50.820;6.494;2023-10-13T01:58:10;19.80;72.10
46309;DHT22;32037;50.820;6.494;2023-10-13T02:00:42;19.80;71.70
46309;DHT22;32037;50.820;6.494;2023-10-13T02:03:11;19.70;71.60
46309;DHT22;32037;50.820;6.494;2023-10-13T02:05:42;19.70;72.00
46309;DHT22;32037;50.820;6.494;2023-10-13T02:08:15;19.70;71.80
46309;DHT22;32037;50.820;6.494;2023-10-13T02:10:46;19.70;71.90
46309;DHT22;32037;50.820;6.494;2023-10-13T02:13:16;19.70;72.40
46309;DHT22;32037;50.820;6.494;2023-10-13T02:15:45;19.70;72.10
46309;DHT22;32037;50.820;6.494;2023-10-13T02:18:17;19.70;71.90
46309;DHT22;32037;50.820;6.494;2023-10-13T02:20:48;19.70;72.10
46309;DHT22;32037;50.820;6.494;2023-10-13T02:23:22;19.70;72.00
46309;DHT22;32037;50.820;6.494;2023-10-13T02:25:51;19.70;71.80
46309;DHT22;32037;50.820;6.494;2023-10-13T02:28:27;19.70;71.80
46309;DHT22;32037;50.820;6.494;2023-10-13T02:30:55;19.70;71.90
46309;DHT22;32037;50.820;6.494;2023-10-13T02:33:24;19.70;71.70
46309;DHT22;32037;50.820;6.494;2023-10-13T02:35:57;19.70;72.30
46309;DHT22;32037;50.820;6.494;2023-10-13T02:38:26;19.70;72.10
46309;DHT22;32037;50.820;6.494;2023-10-13T02:40:56;19.70;71.90
46309;DHT22;32037;50.820;6.494;2023-10-13T02:43:36;19.70;72.00
46309;DHT22;32037;50.820;6.494;2023-10-13T02:46:03;19.70;72.20
46309;DHT22;32037;50.820;6.494;2023-10-13T02:48:32;19.70;72.10
46309;DHT22;32037;50.820;6.494;2023-10-13T02:51:07;19.70;72.30
46309;DHT22;32037;50.820;6.494;2023-10-13T02:53:45;19.70;72.60
46309;DHT22;32037;50.820;6.494;2023-10-13T02:56:18;19.70;72.10
46309;DHT22;32037;50.820;6.494;2023-10-13T02:58:48;19.70;71.90
46309;DHT22;32037;50.820;6.494;2023-10-13T03:01:20;19.70;72.30
46309;DHT22;32037;50.820;6.494;2023-10-13T03:03:54;19.70;72.20
46309;DHT22;32037;50.820;6.494;2023-10-13T03:06:23;19.70;72.20
46309;DHT22;32037;50.820;6.494;2023-10-13T03:09:00;19.70;72.30
46309;DHT22;32037;50.820;6.494;2023-10-13T03:11:45;19.70;72.30
46309;DHT22;32037;50.820;6.494;2023-10-13T03:14:16;19.70;72.10
46309;DHT22;32037;50.820;6.494;2023-10-13T03:16:59;19.70;72.10
46309;DHT22;32037;50.820;6.494;2023-10-13T03:19:32;19.70;72.20
46309;DHT22;32037;50.820;6.494;2023-10-13T03:22:02;19.70;72.20
46309;DHT22;32037;50.820;6.494;2023-10-13T03:24:34;19.70;72.10
46309;DHT22;32037;50.820;6.494;2023-10-13T03:27:04;19.70;71.80
46309;DHT22;32037;50.820;6.494;2023-10-13T03:29:36;19.70;72.10
46309;DHT22;32037;50.820;6.494;2023-10-13T03:32:05;19.70;72.10
46309;DHT22;32037;50.820;6.494;2023-10-13T03:34:39;19.70;72.20
46309;DHT22;32037;50.820;6.494;2023-10-13T03:37:17;19.70;72.40
46309;DHT22;32037;50.820;6.494;2023-10-13T03:40:02;19.70;72.10
46309;DHT22;32037;50.820;6.494;2023-10-13T03:42:35;19.70;72.10
46309;DHT22;32037;50.820;6.494;2023-10-13T03:45:07;19.60;72.00
46309;DHT22;32037;50.820;6.494;2023-10-13T03:47:38;19.60;72.00
46309;DHT22;32037;50.820;6.494;2023-10-13T03:50:12;19.60;71.90
46309;DHT22;32037;50.820;6.494;2023-10-13T03:52:43;19.60;72.10
46309;DHT22;32037;50.820;6.494;2023-10-13T03:55:13;19.60;72.10
46309;DHT22;32037;50.820;6.494;2023-10-13T03:57:46;19.60;72.10
46309;DHT22;32037;50.820;6.494;2023-10-13T04:00:17;19.60;72.20
46309;DHT22;32037;50.820;6.494;2023-10-13T04:02:52;19.60;71.90
46309;DHT22;32037;50.820;6.494;2023-10-13T04:05:36;19.60;72.00
46309;DHT22;32037;50.820;6.494;2023-10-13T04:08:12;19.60;72.10
46309;DHT22;32037;50.820;6.494;2023-10-13T04:10:58;19.60;71.80
46309;DHT22;32037;50.820;6.494;2023-10-13T04:13:46;19.60;72.00
46309;DHT22;32037;50.820;6.494;2023-10-13T04:16:31;19.60;72.00
46309;DHT22;32037;50.820;6.494;2023-10-13T04:19:03;19.60;71.80
46309;DHT22;32037;50.820;6.494;2023-10-13T04:21:48;19.60;71.80
46309;DHT22;32037;50.820;6.494;2023-10-13T04:24:26;19.60;71.70
46309;DHT22;32037;50.820;6.494;2023-10-13T04:27:21;19.60;71.60
46309;DHT22;32037;50.820;6.494;2023-10-13T04:30:14;19.60;71.80
46309;DHT22;32037;50.820;6.494;2023-10-13T04:32:52;19.60;71.70
46309;DHT22;32037;50.820;6.494;2023-10-13T04:35:44;19.60;71.70
46309;DHT22;32037;50.820;6.494;2023-10-13T04:38:24;19.60;71.50
46309;DHT22;32037;50.820;6.494;2023-10-13T04:41:01;19.60;71.70
46309;DHT22;32037;50.820;6.494;2023-10-13T04:43:29;19.60;72.10
46309;DHT22;32037;50.820;6.494;2023-10-13T04:46:24;19.60;72.10
46309;DHT22;32037;50.820;6.494;2023-10-13T04:49:13;19.60;72.10
46309;DHT22;32037;50.820;6.494;2023-10-13T04:51:56;19.60;72.00
46309;DHT22;32037;50.820;6.494;2023-10-13T04:54:28;19.60;72.10
46309;DHT22;32037;50.820;6.494;2023-10-13T04:57:01;19.60;71.80
46309;DHT22;32037;50.820;6.494;2023-10-13T04:59:47;19.60;71.80
46309;DHT22;32037;50.820;6.494;2023-10-13T05:02:34;19.60;72.90
46309;DHT22;32037;50.820;6.494;2023-10-13T05:05:43;19.60;71.70
46309;DHT22;32037;50.820;6.494;2023-10-13T05:08:12;19.50;71.50
46309;DHT22;32037;50.820;6.494;2023-10-13T05:11:03;19.60;71.60
46309;DHT22;32037;50.820;6.494;2023-10-13T05:13:49;19.50;71.70
46309;DHT22;32037;50.820;6.494;2023-10-13T05:16:34;19.60;71.40
46309;DHT22;32037;50.820;6.494;2023-10-13T05:19:22;19.60;71.10
46309;DHT22;32037;50.820;6.494;2023-10-13T05:22:08;19.60;71.20
46309;DHT22;32037;50.820;6.494;2023-10-13T05:24:54;19.60;71.20
46309;DHT22;32037;50.820;6.494;2023-10-13T05:27:39;19.50;71.20
46309;DHT22;32037;50.820;6.494;2023-10-13T05:30:26;19.50;71.30
46309;DHT22;32037;50.820;6.494;2023-10-13T05:33:11;19.60;71.30
46309;DHT22;32037;50.820;6.494;2023-10-13T05:35:58;19.50;71.30
46309;DHT22;32037;50.820;6.494;2023-10-13T05:38:45;19.50;71.90
46309;DHT22;32037;50.820;6.494;2023-10-13T05:41:31;19.50;71.40
46309;DHT22;32037;50.820;6.494;2023-10-13T05:44:17;19.50;71.70
46309;DHT22;32037;50.820;6.494;2023-10-13T05:47:01;19.50;71.40
46309;DHT22;32037;50.820;6.494;2023-10-13T05:50:01;19.50;71.90
46309;DHT22;32037;50.820;6.494;2023-10-13T05:52:47;19.50;71.90
46309;DHT22;32037;50.820;6.494;2023-10-13T05:55:44;19.50;72.20
46309;DHT22;32037;50.820;6.494;2023-10-13T05:58:30;19.50;74.20
46309;DHT22;32037;50.820;6.494;2023-10-13T06:01:16;19.50;72.70
46309;DHT22;32037;50.820;6.494;2023-10-13T06:04:02;19.50;72.40
46309;DHT22;32037;50.820;6.494;2023-10-13T06:06:48;19.50;72.40
46309;DHT22;32037;50.820;6.494;2023-10-13T06:09:35;19.50;71.70
46309;DHT22;32037;50.820;6.494;2023-10-13T06:12:21;19.50;71.70
46309;DHT22;32037;50.820;6.494;2023-10-13T06:15:07;19.50;72.20
46309;DHT22;32037;50.820;6.494;2023-10-13T06:17:53;19.50;71.60
46309;DHT22;32037;50.820;6.494;2023-10-13T06:20:41;19.50;71.90
46309;DHT22;32037;50.820;6.494;2023-10-13T06:23:27;19.50;71.50
46309;DHT22;32037;50.820;6.494;2023-10-13T06:26:16;19.50;71.70
46309;DHT22;32037;50.820;6.494;2023-10-13T06:29:02;19.50;71.80
46309;DHT22;32037;50.820;6.494;2023-10-13T06:31:34;19.50;71.80
46309;DHT22;32037;50.820;6.494;2023-10-13T06:34:03;19.50;71.90
46309;DHT22;32037;50.820;6.494;2023-10-13T06:36:32;19.50;72.30
46309;DHT22;32037;50.820;6.494;2023-10-13T06:39:00;19.50;71.90
46309;DHT22;32037;50.820;6.494;2023-10-13T06:41:44;19.50;72.50
46309;DHT22;32037;50.820;6.494;2023-10-13T06:44:13;19.50;71.90
46309;DHT22;32037;50.820;6.494;2023-10-13T06:46:43;19.50;72.30
46309;DHT22;32037;50.820;6.494;2023-10-13T06:49:12;19.50;72.10
46309;DHT22;32037;50.820;6.494;2023-10-13T06:51:42;19.50;72.30
46309;DHT22;32037;50.820;6.494;2023-10-13T06:54:13;19.50;72.70
46309;DHT22;32037;50.820;6.494;2023-10-13T06:56:48;19.50;72.20
46309;DHT22;32037;50.820;6.494;2023-10-13T06:59:20;19.50;72.70
46309;DHT22;32037;50.820;6.494;2023-10-13T07:01:56;19.50;74.50
46309;DHT22;32037;50.820;6.494;2023-10-13T07:04:53;19.50;73.30
46309;DHT22;32037;50.820;6.494;2023-10-13T07:07:24;19.50;73.70
46309;DHT22;32037;50.820;6.494;2023-10-13T07:09:53;19.50;73.50
46309;DHT22;32037;50.820;6.494;2023-10-13T07:12:26;19.50;73.40
46309;DHT22;32037;50.820;6.494;2023-10-13T07:14:54;19.50;73.50
46309;DHT22;32037;50.820;6.494;2023-10-13T07:17:37;19.50;73.20
46309;DHT22;32037;50.820;6.494;2023-10-13T07:20:07;19.50;72.80
46309;DHT22;32037;50.820;6.494;2023-10-13T07:22:43;19.50;73.00
46309;DHT22;32037;50.820;6.494;2023-10-13T07:25:22;19.50;72.70
46309;DHT22;32037;50.820;6.494;2023-10-13T07:27:54;19.50;73.10
46309;DHT22;32037;50.820;6.494;2023-10-13T07:30:24;19.50;73.30
46309;DHT22;32037;50.820;6.494;2023-10-13T07:32:54;19.50;73.20
46309;DHT22;32037;50.820;6.494;2023-10-13T07:35:27;19.50;72.90
46309;DHT22;32037;50.820;6.494;2023-10-13T07:37:58;19.50;73.70
46309;DHT22;32037;50.820;6.494;2023-10-13T07:40:28;19.50;73.40
46309;DHT22;32037;50.820;6.494;2023-10-13T07:43:09;19.50;73.20
46309;DHT22;32037;50.820;6.494;2023-10-13T07:45:39;19.50;72.80
46309;DHT22;32037;50.820;6.494;2023-10-13T07:48:10;19.50;72.80
46309;DHT22;32037;50.820;6.494;2023-10-13T07:50:46;19.50;72.60
46309;DHT22;32037;50.820;6.494;2023-10-13T07:53:16;19.50;72.90
46309;DHT22;32037;50.820;6.494;2023-10-13T07:55:50;19.50;72.90
46309;DHT22;32037;50.820;6.494;2023-10-13T07:58:25;19.50;72.60
46309;DHT22;32037;50.820;6.494;2023-10-13T08:00:54;19.50;73.20
46309;DHT22;32037;50.820;6.494;2023-10-13T08:03:36;19.50;72.40
46309;DHT22;32037;50.820;6.494;2023-10-13T08:06:15;19.50;72.60
46309;DHT22;32037;50.820;6.494;2023-10-13T08:08:55;19.50;72.60
46309;DHT22;32037;50.820;6.494;2023-10-13T08:11:34;19.50;72.50
46309;DHT22;32037;50.820;6.494;2023-10-13T08:14:06;19.50;72.30
46309;DHT22;32037;50.820;6.494;2023-10-13T08:17:05;19.50;72.20
46309;DHT22;32037;50.820;6.494;2023-10-13T08:19:35;19.50;72.20
46309;DHT22;32037;50.820;6.494;2023-10-13T08:22:12;19.50;72.20
46309;DHT22;32037;50.820;6.494;2023-10-13T08:24:53;19.50;71.80
46309;DHT22;32037;50.820;6.494;2023-10-13T08:27:42;19.50;71.90
46309;DHT22;32037;50.820;6.494;2023-10-13T08:30:33;19.50;72.10
46309;DHT22;32037;50.820;6.494;2023-10-13T08:33:18;19.50;72.00
46309;DHT22;32037;50.820;6.494;2023-10-13T08:35:51;19.50;72.10
46309;DHT22;32037;50.820;6.494;2023-10-13T08:38:32;19.50;72.10
46309;DHT22;32037;50.820;6.494;2023-10-13T08:41:18;19.50;72.00
46309;DHT22;32037;50.820;6.494;2023-10-13T08:44:17;19.50;72.10
46309;DHT22;32037;50.820;6.494;2023-10-13T08:47:14;19.50;72.30
46309;DHT22;32037;50.820;6.494;2023-10-13T08:49:46;19.50;71.90
46309;DHT22;32037;50.820;6.494;2023-10-13T08:52:19;19.50;72.10
46309;DHT22;32037;50.820;6.494;2023-10-13T08:55:13;19.50;71.90
46309;DHT22;32037;50.820;6.494;2023-10-13T08:58:01;19.50;72.00
46309;DHT22;32037;50.820;6.494;2023-10-13T09:00:42;19.50;71.60
46309;DHT22;32037;50.820;6.494;2023-10-13T09:03:40;19.50;71.60
46309;DHT22;32037;50.820;6.494;2023-10-13T09:06:13;19.50;72.10
46309;DHT22;32037;50.820;6.494;2023-10-13T09:08:42;19.50;71.90
46309;DHT22;32037;50.820;6.494;2023-10-13T09:11:33;19.50;71.90
46309;DHT22;32037;50.820;6.494;2023-10-13T09:14:16;19.50;71.90
46309;DHT22;32037;50.820;6.494;2023-10-13T09:17:02;19.50;72.10
46309;DHT22;32037;50.820;6.494;2023-10-13T09:19:45;19.50;71.80
46309;DHT22;32037;50.820;6.494;2023-10-13T09:22:20;19.50;71.50
46309;DHT22;32037;50.820;6.494;2023-10-13T09:24:57;19.50;71.50
46309;DHT22;32037;50.820;6.494;2023-10-13T09:27:30;19.50;71.40
46309;DHT22;32037;50.820;6.494;2023-10-13T09:30:00;19.50;71.40
46309;DHT22;32037;50.820;6.494;2023-10-13T09:32:33;19.50;71.30
46309;DHT22;32037;50.820;6.494;2023-10-13T09:35:17;19.50;71.40
46309;DHT22;32037;50.820;6.494;2023-10-13T09:37:46;19.50;71.80
46309;DHT22;32037;50.820;6.494;2023-10-13T09:40:15;19.60;71.20
46309;DHT22;32037;50.820;6.494;2023-10-13T09:43:01;19.70;71.40
46309;DHT22;32037;50.820;6.494;2023-10-13T09:45:34;19.70;71.40
46309;DHT22;32037;50.820;6.494;2023-10-13T09:48:10;19.70;71.00
46309;DHT22;32037;50.820;6.494;2023-10-13T09:50:47;19.70;71.20
46309;DHT22;32037;50.820;6.494;2023-10-13T09:53:17;19.70;71.50
46309;DHT22;32037;50.820;6.494;2023-10-13T09:55:48;19.60;71.60
46309;DHT22;32037;50.820;6.494;2023-10-13T09:58:18;19.60;71.70
46309;DHT22;32037;50.820;6.494;2023-10-13T10:00:50;19.60;71.70
46309;DHT22;32037;50.820;6.494;2023-10-13T10:03:25;19.60;71.90
46309;DHT22;32037;50.820;6.494;2023-10-13T10:06:08;19.60;72.10
46309;DHT22;32037;50.820;6.494;2023-10-13T10:08:46;19.60;71.90
46309;DHT22;32037;50.820;6.494;2023-10-13T10:11:29;19.60;71.70
46309;DHT22;32037;50.820;6.494;2023-10-13T10:14:09;19.60;71.70
46309;DHT22;32037;50.820;6.494;2023-10-13T10:16:50;19.60;71.70
46309;DHT22;32037;50.820;6.494;2023-10-13T10:19:30;19.60;72.10
46309;DHT22;32037;50.820;6.494;2023-10-13T10:22:04;19.60;71.70
46309;DHT22;32037;50.820;6.494;2023-10-13T10:24:43;19.60;71.80
46309;DHT22;32037;50.820;6.494;2023-10-13T10:27:12;19.60;71.60
46309;DHT22;32037;50.820;6.494;2023-10-13T10:29:56;19.60;71.80
46309;DHT22;32037;50.820;6.494;2023-10-13T10:32:35;19.60;71.80
46309;DHT22;32037;50.820;6.494;2023-10-13T10:35:05;19.60;71.80
46309;DHT22;32037;50.820;6.494;2023-10-13T10:37:38;19.60;71.60
46309;DHT22;32037;50.820;6.494;2023-10-13T10:40:14;19.60;71.60
46309;DHT22;32037;50.820;6.494;2023-10-13T10:43:05;19.60;71.50
46309;DHT22;32037;50.820;6.494;2023-10-13T10:45:55;19.60;71.80
46309;DHT22;32037;50.820;6.494;2023-10-13T10:48:27;19.70;71.90
46309;DHT22;32037;50.820;6.494;2023-10-13T10:51:01;19.70;71.80
46309;DHT22;32037;50.820;6.494;2023-10-13T10:53:42;19.70;71.60
46309;DHT22;32037;50.820;6.494;2023-10-13T10:56:14;19.70;71.60
46309;DHT22;32037;50.820;6.494;2023-10-13T10:58:53;19.70;71.60
46309;DHT22;32037;50.820;6.494;2023-10-13T11:01:23;19.70;71.50
46309;DHT22;32037;50.820;6.494;2023-10-13T11:03:56;19.70;71.70
46309;DHT22;32037;50.820;6.494;2023-10-13T11:06:35;19.70;71.50
46309;DHT22;32037;50.820;6.494;2023-10-13T11:09:12;19.60;71.40
46309;DHT22;32037;50.820;6.494;2023-10-13T11:12:16;19.60;71.80
46309;DHT22;32037;50.820;6.494;2023-10-13T11:15:01;19.60;71.40
46309;DHT22;32037;50.820;6.494;2023-10-13T11:17:30;19.60;71.50
46309;DHT22;32037;50.820;6.494;2023-10-13T11:20:12;19.70;71.50
46309;DHT22;32037;50.820;6.494;2023-10-13T11:22:48;19.70;71.40
46309;DHT22;32037;50.820;6.494;2023-10-13T11:25:23;19.60;71.60
46309;DHT22;32037;50.820;6.494;2023-10-13T11:27:57;19.70;71.60
46309;DHT22;32037;50.820;6.494;2023-10-13T11:30:27;19.70;71.60
46309;DHT22;32037;50.820;6.494;2023-10-13T11:33:09;19.70;71.60
46309;DHT22;32037;50.820;6.494;2023-10-13T11:35:39;19.60;71.30
46309;DHT22;32037;50.820;6.494;2023-10-13T11:38:26;19.70;71.50
46309;DHT22;32037;50.820;6.494;2023-10-13T11:40:57;19.70;71.50
46309;DHT22;32037;50.820;6.494;2023-10-13T11:43:44;19.70;71.60
46309;DHT22;32037;50.820;6.494;2023-10-13T11:46:31;19.70;71.50
46309;DHT22;32037;50.820;6.494;2023-10-13T11:49:16;19.70;71.30
46309;DHT22;32037;50.820;6.494;2023-10-13T11:51:47;19.60;71.50
46309;DHT22;32037;50.820;6.494;2023-10-13T11:54:16;19.70;71.30
46309;DHT22;32037;50.820;6.494;2023-10-13T11:56:48;19.70;71.40
46309;DHT22;32037;50.820;6.494;2023-10-13T11:59:20;19.70;71.50
46309;DHT22;32037;50.820;6.494;2023-10-13T12:01:54;19.70;71.30
46309;DHT22;32037;50.820;6.494;2023-10-13T12:04:39;19.70;71.30
46309;DHT22;32037;50.820;6.494;2023-10-13T12:07:18;19.60;71.10
46309;DHT22;32037;50.820;6.494;2023-10-13T12:09:50;19.60;71.20
46309;DHT22;32037;50.820;6.494;2023-10-13T12:12:37;19.70;71.20
46309;DHT22;32037;50.820;6.494;2023-10-13T12:15:10;19.70;71.20
46309;DHT22;32037;50.820;6.494;2023-10-13T12:17:52;19.70;71.20
46309;DHT22;32037;50.820;6.494;2023-10-13T12:20:26;19.70;71.10
46309;DHT22;32037;50.820;6.494;2023-10-13T12:23:03;19.70;71.20
46309;DHT22;32037;50.820;6.494;2023-10-13T12:25:43;19.60;71.10
46309;DHT22;32037;50.820;6.494;2023-10-13T12:28:29;19.70;71.20
46309;DHT22;32037;50.820;6.494;2023-10-13T12:31:04;19.70;71.10
46309;DHT22;32037;50.820;6.494;2023-10-13T12:33:38;19.70;72.30
46309;DHT22;32037;50.820;6.494;2023-10-13T12:36:07;19.70;71.00
46309;DHT22;32037;50.820;6.494;2023-10-13T12:38:42;19.70;70.90
46309;DHT22;32037;50.820;6.494;2023-10-13T12:41:34;19.70;70.90
46309;DHT22;32037;50.820;6.494;2023-10-13T12:44:21;19.70;70.70
46309;DHT22;32037;50.820;6.494;2023-10-13T12:47:16;19.70;70.70
46309;DHT22;32037;50.820;6.494;2023-10-13T12:50:03;19.70;70.80
46309;DHT22;32037;50.820;6.494;2023-10-13T12:52:51;19.70;70.70
46309;DHT22;32037;50.820;6.494;2023-10-13T12:55:19;19.70;70.60
46309;DHT22;32037;50.820;6.494;2023-10-13T12:57:52;19.70;70.60
46309;DHT22;32037;50.820;6.494;2023-10-13T13:00:22;19.70;70.60
46309;DHT22;32037;50.820;6.494;2023-10-13T13:03:00;19.70;70.60
46309;DHT22;32037;50.820;6.494;2023-10-13T13:05:38;19.70;70.50
46309;DHT22;32037;50.820;6.494;2023-10-13T13:08:12;19.70;70.40
46309;DHT22;32037;50.820;6.494;2023-10-13T13:10:49;19.70;70.30
46309;DHT22;32037;50.820;6.494;2023-10-13T13:13:18;19.70;70.40
46309;DHT22;32037;50.820;6.494;2023-10-13T13:15:53;19.70;70.30
46309;DHT22;32037;50.820;6.494;2023-10-13T13:18:21;19.70;70.10
46309;DHT22;32037;50.820;6.494;2023-10-13T13:20:50;19.70;70.00
46309;DHT22;32037;50.820;6.494;2023-10-13T13:23:22;19.70;70.00
46309;DHT22;32037;50.820;6.494;2023-10-13T13:25:53;19.70;70.20
46309;DHT22;32037;50.820;6.494;2023-10-13T13:28:24;19.80;70.30
46309;DHT22;32037;50.820;6.494;2023-10-13T13:30:58;19.80;70.20
46309;DHT22;32037;50.820;6.494;2023-10-13T13:33:26;19.70;70.20
46309;DHT22;32037;50.820;6.494;2023-10-13T13:36:00;19.80;70.10
46309;DHT22;32037;50.820;6.494;2023-10-13T13:38:28;19.80;70.10
46309;DHT22;32037;50.820;6.494;2023-10-13T13:40:59;19.80;70.10
46309;DHT22;32037;50.820;6.494;2023-10-13T13:43:29;19.70;70.00
46309;DHT22;32037;50.820;6.494;2023-10-13T13:46:07;19.70;70.00
46309;DHT22;32037;50.820;6.494;2023-10-13T13:48:41;19.80;70.20
46309;DHT22;32037;50.820;6.494;2023-10-13T13:51:09;19.80;70.20
46309;DHT22;32037;50.820;6.494;2023-10-13T13:53:42;19.70;70.20
46309;DHT22;32037;50.820;6.494;2023-10-13T13:56:15;19.70;70.20
46309;DHT22;32037;50.820;6.494;2023-10-13T13:58:46;19.80;70.30
46309;DHT22;32037;50.820;6.494;2023-10-13T14:01:16;19.80;70.30
46309;DHT22;32037;50.820;6.494;2023-10-13T14:03:47;19.70;70.50
46309;DHT22;32037;50.820;6.494;2023-10-13T14:06:18;19.80;70.40
46309;DHT22;32037;50.820;6.494;2023-10-13T14:08:51;19.80;70.30
46309;DHT22;32037;50.820;6.494;2023-10-13T14:11:23;19.70;70.30
46309;DHT22;32037;50.820;6.494;2023-10-13T14:14:10;19.70;70.30
46309;DHT22;32037;50.820;6.494;2023-10-13T14:16:57;19.80;70.30
46309;DHT22;32037;50.820;6.494;2023-10-13T14:19:34;19.80;70.30
46309;DHT22;32037;50.820;6.494;2023-10-13T14:22:07;19.80;70.40
46309;DHT22;32037;50.820;6.494;2023-10-13T14:24:40;19.80;70.40
46309;DHT22;32037;50.820;6.494;2023-10-13T14:27:18;19.70;70.30
46309;DHT22;32037;50.820;6.494;2023-10-13T14:29:50;19.80;71.60
46309;DHT22;32037;50.820;6.494;2023-10-13T14:32:22;19.70;70.40
46309;DHT22;32037;50.820;6.494;2023-10-13T14:34:54;19.70;70.30
46309;DHT22;32037;50.820;6.494;2023-10-13T14:37:24;19.70;70.40
46309;DHT22;32037;50.820;6.494;2023-10-13T14:39:58;19.80;70.40
46309;DHT22;32037;50.820;6.494;2023-10-13T14:42:28;19.80;70.40
46309;DHT22;32037;50.820;6.494;2023-10-13T14:45:02;19.80;70.40
46309;DHT22;32037;50.820;6.494;2023-10-13T14:47:40;19.80;70.30
46309;DHT22;32037;50.820;6.494;2023-10-13T14:50:10;19.80;70.30
46309;DHT22;32037;50.820;6.494;2023-10-13T14:52:44;19.80;70.30
46309;DHT22;32037;50.820;6.494;2023-10-13T14:55:13;19.80;70.30
46309;DHT22;32037;50.820;6.494;2023-10-13T14:57:47;19.80;70.30
46309;DHT22;32037;50.820;6.494;2023-10-13T15:00:20;19.80;70.10
46309;DHT22;32037;50.820;6.494;2023-10-13T15:02:56;19.80;70.00
46309;DHT22;32037;50.820;6.494;2023-10-13T15:05:28;19.80;70.00
46309;DHT22;32037;50.820;6.494;2023-10-13T15:07:58;19.80;70.00
46309;DHT22;32037;50.820;6.494;2023-10-13T15:10:26;19.80;70.10
46309;DHT22;32037;50.820;6.494;2023-10-13T15:12:58;19.80;70.00
46309;DHT22;32037;50.820;6.494;2023-10-13T15:15:26;19.80;70.00
46309;DHT22;32037;50.820;6.494;2023-10-13T15:18:00;19.80;70.00
46309;DHT22;32037;50.820;6.494;2023-10-13T15:20:29;19.80;70.00
46309;DHT22;32037;50.820;6.494;2023-10-13T15:22:57;19.90;70.00
46309;DHT22;32037;50.820;6.494;2023-10-13T15:25:27;19.90;69.90
46309;DHT22;32037;50.820;6.494;2023-10-13T15:28:06;19.90;70.30
46309;DHT22;32037;50.820;6.494;2023-10-13T15:30:36;19.90;70.00
46309;DHT22;32037;50.820;6.494;2023-10-13T15:33:17;20.00;70.10
46309;DHT22;32037;50.820;6.494;2023-10-13T15:35:50;20.00;70.00
46309;DHT22;32037;50.820;6.494;2023-10-13T15:38:18;20.00;70.00
46309;DHT22;32037;50.820;6.494;2023-10-13T15:40:49;20.00;69.90
46309;DHT22;32037;50.820;6.494;2023-10-13T15:43:22;20.00;69.60
46309;DHT22;32037;50.820;6.494;2023-10-13T15:45:50;20.00;69.70
46309;DHT22;32037;50.820;6.494;2023-10-13T15:48:20;20.00;69.90
46309;DHT22;32037;50.820;6.494;2023-10-13T15:50:52;19.90;69.80
46309;DHT22;32037;50.820;6.494;2023-10-13T15:53:21;20.00;70.10
46309;DHT22;32037;50.820;6.494;2023-10-13T15:55:52;19.90;70.00
46309;DHT22;32037;50.820;6.494;2023-10-13T15:58:20;19.90;69.90
46309;DHT22;32037;50.820;6.494;2023-10-13T16:00:53;19.90;70.00
46309;DHT22;32037;50.820;6.494;2023-10-13T16:03:25;19.90;70.00
46309;DHT22;32037;50.820;6.494;2023-10-13T16:05:56;19.90;70.30
46309;DHT22;32037;50.820;6.494;2023-10-13T16:08:27;19.90;70.20
46309;DHT22;32037;50.820;6.494;2023-10-13T16:11:04;19.90;70.30
46309;DHT22;32037;50.820;6.494;2023-10-13T16:13:34;19.90;70.40
46309;DHT22;32037;50.820;6.494;2023-10-13T16:16:04;19.90;70.40
46309;DHT22;32037;50.820;6.494;2023-10-13T16:18:34;19.90;70.30
46309;DHT22;32037;50.820;6.494;2023-10-13T16:21:02;19.90;70.60
46309;DHT22;32037;50.820;6.494;2023-10-13T16:23:31;19.90;70.40
46309;DHT22;32037;50.820;6.494;2023-10-13T16:25:59;19.90;70.40